Time;durP1;ratioP1;P1;durP2;ratioP2;P2;SDS_P1;SDS_P2;PMS_P1;PMS_P2;Temp;Humidity;BMP_temperature;BMP_pressure;BME280_temperature;BME280_humidity;BME280_pressure;Samples;Min_cycle;Max_cycle;Signal;HPM_P1;HPM_P2
2020/12/29 00:00:15;;;;;;;19.10;15.50;;;0.70;99.90;;;;;;5125598;27;20553;-76
2020/12/29 00:02:41;;;;;;;16.07;13.63;;;0.90;98.50;;;;;;5125869;27;20440;-75
2020/12/29 00:05:08;;;;;;;17.70;12.97;;;1.00;98.00;;;;;;5124437;27;20455;-76
2020/12/29 00:07:36;;;;;;;15.37;13.10;;;1.10;97.20;;;;;;5114287;27;20481;-74
2020/12/29 00:10:03;;;;;;;14.77;13.17;;;1.20;96.90;;;;;;5120170;27;20963;-75
2020/12/29 00:12:32;;;;;;;15.83;12.60;;;1.20;96.00;;;;;;5128053;27;20446;-74
2020/12/29 00:15:02;;;;;;;16.80;13.53;;;1.20;96.20;;;;;;5125909;27;20476;-75
2020/12/29 00:17:30;;;;;;;15.53;11.57;;;1.30;95.60;;;;;;5126022;27;20933;-75
2020/12/29 00:19:57;;;;;;;14.63;12.27;;;1.30;95.30;;;;;;5123050;27;21047;-75
2020/12/29 00:22:23;;;;;;;17.30;11.93;;;1.30;94.70;;;;;;5126564;27;20488;-74
2020/12/29 00:24:50;;;;;;;13.23;11.00;;;1.20;95.20;;;;;;5127656;27;20792;-75
2020/12/29 00:27:21;;;;;;;12.70;11.37;;;1.20;96.10;;;;;;5123981;27;20464;-74
2020/12/29 00:29:47;;;;;;;12.70;10.50;;;1.20;96.20;;;;;;5126038;27;20534;-75
2020/12/29 00:32:15;;;;;;;12.87;10.93;;;1.20;96.70;;;;;;5125029;27;20545;-74
2020/12/29 00:34:41;;;;;;;13.63;11.30;;;1.20;97.10;;;;;;5126430;27;20972;-75
2020/12/29 00:37:07;;;;;;;11.40;9.47;;;1.20;97.50;;;;;;5124520;27;20492;-75
2020/12/29 00:39:34;;;;;;;11.60;10.33;;;1.20;97.00;;;;;;5122908;27;20550;-74
2020/12/29 00:42:00;;;;;;;12.20;10.27;;;1.30;96.50;;;;;;5124782;27;20519;-75
2020/12/29 00:44:27;;;;;;;12.93;9.80;;;1.20;96.80;;;;;;5125715;27;20449;-75
2020/12/29 00:46:53;;;;;;;13.63;11.03;;;1.20;96.90;;;;;;5120383;27;20478;-76
2020/12/29 00:49:24;;;;;;;11.53;10.33;;;1.20;96.50;;;;;;5127730;27;20476;-75
2020/12/29 00:51:54;;;;;;;12.60;10.80;;;1.10;96.80;;;;;;5126035;27;20478;-75
2020/12/29 00:54:21;;;;;;;12.30;10.97;;;1.00;97.10;;;;;;5127596;27;20597;-75
2020/12/29 00:56:47;;;;;;;12.67;10.50;;;0.90;98.10;;;;;;5118282;27;20471;-75
2020/12/29 00:59:17;;;;;;;14.60;11.33;;;0.90;99.70;;;;;;5126171;27;20442;-75
2020/12/29 01:01:43;;;;;;;12.40;10.60;;;0.80;99.90;;;;;;5123835;27;20451;-75
2020/12/29 01:04:10;;;;;;;12.17;10.83;;;0.70;99.90;;;;;;5126172;27;20594;-75
2020/12/29 01:06:37;;;;;;;13.27;10.77;;;0.70;99.90;;;;;;5128549;27;20502;-74
2020/12/29 01:09:03;;;;;;;12.33;11.03;;;0.60;99.90;;;;;;5128007;27;20948;-75
2020/12/29 01:11:30;;;;;;;12.20;10.50;;;0.60;99.90;;;;;;5131108;27;20527;-75
2020/12/29 01:13:58;;;;;;;14.10;11.50;;;0.50;99.90;;;;;;5125191;27;20487;-74
2020/12/29 01:16:24;;;;;;;13.73;10.70;;;0.60;99.90;;;;;;5128082;27;20455;-75
2020/12/29 01:18:51;;;;;;;12.33;11.00;;;0.60;99.90;;;;;;5128501;27;20494;-75
2020/12/29 01:21:17;;;;;;;13.00;10.57;;;0.60;99.90;;;;;;5136740;27;20477;-75
2020/12/29 01:23:44;;;;;;;11.30;9.60;;;0.70;99.90;;;;;;5127368;27;20553;-75
2020/12/29 01:26:11;;;;;;;13.43;9.90;;;0.90;99.90;;;;;;5129974;27;20591;-75
2020/12/29 01:28:37;;;;;;;9.73;8.30;;;1.00;99.90;;;;;;5123304;27;20464;-75
2020/12/29 01:31:04;;;;;;;9.50;8.50;;;1.10;99.10;;;;;;5131486;27;20456;-74
2020/12/29 01:33:31;;;;;;;9.50;8.40;;;1.10;96.40;;;;;;5128641;27;20530;-75
2020/12/29 01:35:57;;;;;;;11.17;9.47;;;1.10;95.60;;;;;;5129121;27;20451;-75
2020/12/29 01:38:25;;;;;;;10.60;8.93;;;1.10;94.90;;;;;;5128047;27;20448;-75
2020/12/29 01:40:59;;;;;;;10.57;7.83;;;1.20;94.60;;;;;;5131681;27;20476;-75
2020/12/29 01:43:28;;;;;;;8.43;7.47;;;1.30;93.50;;;;;;5128982;27;20548;-76
2020/12/29 01:45:57;;;;;;;8.70;7.87;;;1.40;92.60;;;;;;5131572;27;20476;-76
2020/12/29 01:48:25;;;;;;;8.93;8.03;;;1.40;92.30;;;;;;5127331;27;20470;-77
2020/12/29 01:50:52;;;;;;;8.00;7.23;;;1.40;92.10;;;;;;5124265;27;21048;-76
2020/12/29 01:53:18;;;;;;;10.67;7.80;;;1.40;91.60;;;;;;5131114;27;20468;-76
2020/12/29 01:55:44;;;;;;;7.97;6.77;;;1.40;91.00;;;;;;5130831;27;20996;-76
2020/12/29 01:58:17;;;;;;;11.07;7.43;;;1.40;90.80;;;;;;5149573;27;20435;-77
2020/12/29 02:00:44;;;;;;;7.93;6.90;;;1.40;90.80;;;;;;5163924;27;20444;-77
2020/12/29 02:03:14;;;;;;;6.67;5.50;;;1.50;90.60;;;;;;5149117;27;20485;-76
2020/12/29 02:05:42;;;;;;;6.83;6.13;;;1.50;90.00;;;;;;5125846;27;20555;-76
2020/12/29 02:08:09;;;;;;;7.50;6.80;;;1.60;88.70;;;;;;5129160;27;20472;-76
2020/12/29 02:10:35;;;;;;;6.63;5.70;;;1.70;87.40;;;;;;5127080;27;20476;-76
2020/12/29 02:13:02;;;;;;;6.93;6.23;;;1.70;86.50;;;;;;5131661;27;20513;-75
2020/12/29 02:15:30;;;;;;;7.17;6.47;;;1.80;86.10;;;;;;5129395;27;20455;-76
2020/12/29 02:17:56;;;;;;;7.00;6.30;;;1.80;85.80;;;;;;5128607;27;20467;-76
2020/12/29 02:20:23;;;;;;;7.70;6.50;;;1.80;86.20;;;;;;5123277;27;20450;-76
2020/12/29 02:22:50;;;;;;;7.33;6.63;;;1.80;87.90;;;;;;5133971;27;20479;-76
2020/12/29 02:25:17;;;;;;;13.47;6.40;;;1.70;89.40;;;;;;5126091;27;20478;-76
2020/12/29 02:27:45;;;;;;;8.60;6.97;;;1.70;90.40;;;;;;5132258;27;20469;-75
2020/12/29 02:30:12;;;;;;;7.47;6.17;;;1.70;91.10;;;;;;5127683;27;20547;-75
2020/12/29 02:32:39;;;;;;;7.27;6.57;;;1.60;91.80;;;;;;5129815;27;20478;-76
2020/12/29 02:35:11;;;;;;;11.03;6.80;;;1.60;91.90;;;;;;5129051;27;20487;-75
2020/12/29 02:37:38;;;;;;;6.90;6.30;;;1.60;92.80;;;;;;5125818;27;20451;-76
2020/12/29 02:40:08;;;;;;;7.30;6.60;;;1.60;92.90;;;;;;5128851;27;20450;-75
2020/12/29 02:42:34;;;;;;;11.27;7.70;;;1.60;93.10;;;;;;5127818;27;20513;-75
2020/12/29 02:45:01;;;;;;;7.53;6.80;;;1.60;93.70;;;;;;5129010;27;20843;-75
2020/12/29 02:47:27;;;;;;;6.83;6.10;;;1.60;94.20;;;;;;5123154;27;20612;-75
2020/12/29 02:49:53;;;;;;;8.10;6.47;;;1.60;94.60;;;;;;5128670;27;20491;-75
2020/12/29 02:52:20;;;;;;;8.43;6.97;;;1.60;94.80;;;;;;5128497;27;20441;-75
2020/12/29 02:54:46;;;;;;;7.80;7.00;;;1.60;95.00;;;;;;5130893;27;20499;-76
2020/12/29 02:57:13;;;;;;;7.90;6.80;;;1.50;95.60;;;;;;5128923;27;20556;-75
2020/12/29 02:59:40;;;;;;;6.83;6.13;;;1.40;97.10;;;;;;5136779;27;20578;-76
2020/12/29 03:02:06;;;;;;;7.07;6.00;;;1.40;99.20;;;;;;5134182;27;20480;-76
2020/12/29 03:04:32;;;;;;;7.60;6.17;;;1.40;98.90;;;;;;5131057;27;20957;-76
2020/12/29 03:06:59;;;;;;;6.20;5.57;;;1.50;98.90;;;;;;5126725;27;20472;-75
2020/12/29 03:09:25;;;;;;;6.30;5.70;;;1.50;97.90;;;;;;5131996;27;20475;-75
2020/12/29 03:11:52;;;;;;;7.63;6.53;;;1.60;97.00;;;;;;5128128;27;20460;-75
2020/12/29 03:14:19;;;;;;;6.00;5.10;;;1.60;96.10;;;;;;5129744;27;20991;-75
2020/12/29 03:16:45;;;;;;;6.40;5.80;;;1.60;95.60;;;;;;5126650;27;20546;-76
2020/12/29 03:19:14;;;;;;;6.43;5.63;;;1.70;94.30;;;;;;5127986;27;20451;-75
2020/12/29 03:21:40;;;;;;;5.20;4.70;;;1.80;92.90;;;;;;5128261;27;20500;-75
2020/12/29 03:24:06;;;;;;;5.40;4.90;;;1.90;92.10;;;;;;5125261;27;20968;-75
2020/12/29 03:26:33;;;;;;;4.77;4.30;;;2.00;91.00;;;;;;5127357;27;20794;-76
2020/12/29 03:29:00;;;;;;;4.60;4.20;;;2.10;90.70;;;;;;5125958;27;20460;-77
2020/12/29 03:31:27;;;;;;;8.33;4.70;;;2.10;90.20;;;;;;5128442;27;20448;-77
2020/12/29 03:33:54;;;;;;;4.10;3.80;;;2.20;90.10;;;;;;5127814;27;20471;-76
2020/12/29 03:36:20;;;;;;;4.53;4.10;;;2.20;89.30;;;;;;5130339;27;20476;-76
2020/12/29 03:38:46;;;;;;;4.20;3.80;;;2.20;89.30;;;;;;5129273;27;20454;-76
2020/12/29 03:41:13;;;;;;;3.80;3.50;;;2.20;89.90;;;;;;5129212;27;20530;-76
2020/12/29 03:43:42;;;;;;;4.43;4.03;;;2.20;90.20;;;;;;5129245;27;20872;-76
2020/12/29 03:46:08;;;;;;;4.07;3.77;;;2.20;90.20;;;;;;5128144;27;20436;-76
2020/12/29 03:48:35;;;;;;;4.07;3.10;;;2.30;90.20;;;;;;5126550;27;20516;-76
2020/12/29 03:51:02;;;;;;;4.33;3.93;;;2.30;90.20;;;;;;5126070;27;21038;-76
2020/12/29 03:53:28;;;;;;;5.50;3.07;;;2.40;90.10;;;;;;5126970;27;20541;-76
2020/12/29 03:55:55;;;;;;;3.53;3.00;;;2.40;90.00;;;;;;5128561;27;20566;-76
2020/12/29 03:58:30;;;;;;;4.70;3.70;;;2.40;88.90;;;;;;5122142;27;20442;-76
2020/12/29 04:00:56;;;;;;;4.00;3.33;;;2.50;89.20;;;;;;5129564;27;20448;-76
2020/12/29 04:03:23;;;;;;;4.30;3.13;;;2.50;89.10;;;;;;5130950;27;20490;-75
2020/12/29 04:05:50;;;;;;;3.00;2.70;;;2.50;89.30;;;;;;5129310;27;20448;-76
2020/12/29 04:08:16;;;;;;;4.87;2.60;;;2.50;88.90;;;;;;5129612;27;20534;-76
2020/12/29 04:10:44;;;;;;;4.33;3.37;;;2.50;88.80;;;;;;5128662;27;20567;-75
2020/12/29 04:13:11;;;;;;;2.60;2.40;;;2.50;88.20;;;;;;5129635;27;21151;-75
2020/12/29 04:15:37;;;;;;;3.67;3.20;;;2.60;88.30;;;;;;5130285;27;20537;-75
2020/12/29 04:18:03;;;;;;;3.10;2.80;;;2.60;88.20;;;;;;5128299;27;20460;-77
2020/12/29 04:20:30;;;;;;;2.53;2.33;;;2.50;87.90;;;;;;5127943;27;20540;-76
2020/12/29 04:22:57;;;;;;;2.67;2.47;;;2.50;87.70;;;;;;5126958;27;20575;-76
2020/12/29 04:25:23;;;;;;;2.23;2.03;;;2.60;87.40;;;;;;5126104;27;20491;-76
2020/12/29 04:27:50;;;;;;;3.13;2.30;;;2.60;87.30;;;;;;5127174;28;20480;-77
2020/12/29 04:30:16;;;;;;;2.20;2.00;;;2.60;86.80;;;;;;5127458;27;20528;-76
2020/12/29 04:32:42;;;;;;;2.20;2.00;;;2.60;86.10;;;;;;5128232;27;20589;-76
2020/12/29 04:35:09;;;;;;;2.40;2.20;;;2.60;85.50;;;;;;5123358;27;20493;-77
2020/12/29 04:37:36;;;;;;;2.43;2.20;;;2.60;84.80;;;;;;5127750;27;20471;-76
2020/12/29 04:40:04;;;;;;;2.60;1.80;;;2.70;84.10;;;;;;5127500;27;20554;-76
2020/12/29 04:42:32;;;;;;;2.63;2.00;;;2.70;83.20;;;;;;5132030;27;20437;-76
2020/12/29 04:45:01;;;;;;;2.10;2.00;;;2.70;82.60;;;;;;5131657;27;20438;-76
2020/12/29 04:47:28;;;;;;;2.50;2.07;;;2.70;82.30;;;;;;5127385;27;22264;-76
2020/12/29 04:49:55;;;;;;;1.70;1.60;;;2.70;82.50;;;;;;5131960;27;21000;-76
2020/12/29 04:52:22;;;;;;;1.90;1.80;;;2.70;82.00;;;;;;5130659;27;20539;-76
2020/12/29 04:54:52;;;;;;;2.43;2.20;;;2.70;81.80;;;;;;5131378;27;20472;-76
2020/12/29 04:57:23;;;;;;;2.50;2.30;;;2.80;81.40;;;;;;5134281;27;20456;-77
2020/12/29 04:59:50;;;;;;;2.43;1.70;;;2.80;81.10;;;;;;5134399;27;20809;-77
2020/12/29 05:02:16;;;;;;;2.20;1.63;;;2.90;79.80;;;;;;5130483;27;20455;-76
2020/12/29 05:04:44;;;;;;;2.03;1.60;;;3.00;79.20;;;;;;5128342;27;20449;-76
2020/12/29 05:07:11;;;;;;;2.17;1.90;;;3.00;78.50;;;;;;5129987;27;20538;-76
2020/12/29 05:09:38;;;;;;;1.70;1.60;;;3.00;78.40;;;;;;5134965;27;20444;-76
2020/12/29 05:12:04;;;;;;;1.97;1.77;;;2.90;78.10;;;;;;5131432;27;20525;-77
2020/12/29 05:14:31;;;;;;;1.93;1.60;;;2.80;78.10;;;;;;5129811;27;20454;-77
2020/12/29 05:16:58;;;;;;;1.53;1.43;;;2.70;78.70;;;;;;5128952;27;20457;-77
2020/12/29 05:19:27;;;;;;;2.60;1.87;;;2.60;78.60;;;;;;5127856;27;20539;-77
2020/12/29 05:21:56;;;;;;;3.50;2.00;;;2.50;78.60;;;;;;5138560;27;21620;-77
2020/12/29 05:24:23;;;;;;;1.73;1.63;;;2.60;78.50;;;;;;5160208;27;20562;-77
2020/12/29 05:26:55;;;;;;;3.20;1.83;;;2.50;77.90;;;;;;5162417;27;20474;-77
2020/12/29 05:29:22;;;;;;;2.10;1.43;;;2.60;78.10;;;;;;5140113;27;20449;-77
2020/12/29 05:31:52;;;;;;;1.60;1.50;;;2.70;77.70;;;;;;5129397;27;20566;-76
2020/12/29 05:34:26;;;;;;;2.93;2.00;;;2.70;77.40;;;;;;5129550;27;20472;-76
2020/12/29 05:36:53;;;;;;;1.33;1.23;;;2.70;77.70;;;;;;5128953;27;20445;-76
2020/12/29 05:39:22;;;;;;;2.47;1.13;;;2.70;77.30;;;;;;5133428;27;20547;-75
2020/12/29 05:41:50;;;;;;;1.50;1.40;;;2.70;77.20;;;;;;5131829;27;20477;-77
2020/12/29 05:44:25;;;;;;;3.43;1.50;;;2.70;77.10;;;;;;5126806;27;20456;-78
2020/12/29 05:46:53;;;;;;;1.80;1.50;;;2.70;77.00;;;;;;5129603;27;20627;-76
2020/12/29 05:49:19;;;;;;;2.47;1.63;;;2.70;76.90;;;;;;5124624;27;20510;-77
2020/12/29 05:51:48;;;;;;;1.70;1.60;;;2.80;76.80;;;;;;5126556;27;20528;-77
2020/12/29 05:54:16;;;;;;;1.50;1.40;;;2.70;76.70;;;;;;5128317;27;20483;-77
2020/12/29 05:56:45;;;;;;;1.47;1.37;;;2.60;76.50;;;;;;5128641;27;20489;-77
2020/12/29 05:59:12;;;;;;;1.60;1.50;;;2.60;77.00;;;;;;5129672;27;20492;-77
2020/12/29 06:01:41;;;;;;;1.50;1.40;;;2.70;76.50;;;;;;5124060;27;20472;-77
2020/12/29 06:04:12;;;;;;;1.90;1.30;;;2.70;76.30;;;;;;5131037;27;20458;-77
2020/12/29 06:06:40;;;;;;;2.40;1.70;;;2.80;75.80;;;;;;5125352;27;20531;-77
2020/12/29 06:09:08;;;;;;;1.37;1.27;;;2.90;75.70;;;;;;5127945;27;20451;-77
2020/12/29 06:11:40;;;;;;;2.70;1.57;;;2.90;75.40;;;;;;5126682;27;20464;-77
2020/12/29 06:14:15;;;;;;;1.73;1.60;;;3.00;75.30;;;;;;5125496;27;20933;-76
2020/12/29 06:16:43;;;;;;;2.40;1.07;;;3.00;75.00;;;;;;5128336;27;20531;-76
2020/12/29 06:19:23;;;;;;;1.40;1.30;;;3.00;74.90;;;;;;5125038;27;20450;-76
2020/12/29 06:22:07;;;;;;;1.63;1.30;;;3.20;74.70;;;;;;5125017;27;20980;-77
2020/12/29 06:24:35;;;;;;;1.90;1.40;;;3.20;74.50;;;;;;5127131;27;20545;-77
2020/12/29 06:27:03;;;;;;;1.73;1.50;;;3.20;74.20;;;;;;5127447;27;20473;-76
2020/12/29 06:29:35;;;;;;;3.07;1.47;;;3.10;74.40;;;;;;5123422;27;20540;-77
2020/12/29 06:32:09;;;;;;;1.67;1.40;;;3.10;74.20;;;;;;5128714;27;20526;-77
2020/12/29 06:34:40;;;;;;;2.40;1.63;;;3.10;74.40;;;;;;5128378;27;20513;-78
2020/12/29 06:37:20;;;;;;;1.50;1.40;;;3.10;74.40;;;;;;5133606;27;21012;-77
2020/12/29 06:39:49;;;;;;;1.30;1.20;;;3.10;74.50;;;;;;5136554;27;20468;-78
2020/12/29 06:42:18;;;;;;;1.47;1.37;;;3.10;74.60;;;;;;5138604;27;21116;-78
2020/12/29 06:44:45;;;;;;;2.07;1.67;;;3.10;74.60;;;;;;5142769;27;20445;-77
2020/12/29 06:47:13;;;;;;;1.57;1.47;;;3.20;74.70;;;;;;5125321;27;20500;-77
2020/12/29 06:49:44;;;;;;;2.80;1.40;;;3.20;74.80;;;;;;5126172;27;20502;-77
2020/12/29 06:52:18;;;;;;;1.43;1.33;;;3.20;74.60;;;;;;5125280;27;20533;-76
2020/12/29 06:54:48;;;;;;;1.63;1.37;;;3.30;74.70;;;;;;5128048;27;20502;-76
2020/12/29 06:57:14;;;;;;;2.20;1.47;;;3.30;74.40;;;;;;5127391;27;20468;-77
2020/12/29 06:59:41;;;;;;;2.10;1.10;;;3.30;74.40;;;;;;5131597;27;20441;-78
2020/12/29 07:02:22;;;;;;;1.67;1.27;;;3.30;74.00;;;;;;5133021;27;20590;-77
2020/12/29 07:04:54;;;;;;;1.27;1.10;;;3.30;74.00;;;;;;5126798;27;20447;-77
2020/12/29 07:07:28;;;;;;;1.37;0.87;;;3.30;73.80;;;;;;5123932;27;21025;-77
2020/12/29 07:10:00;;;;;;;1.50;1.20;;;3.30;73.70;;;;;;5127947;27;20549;-77
2020/12/29 07:12:30;;;;;;;2.67;1.10;;;3.30;73.60;;;;;;5125210;27;20462;-77
2020/12/29 07:15:00;;;;;;;1.33;1.00;;;3.30;73.70;;;;;;5126011;27;20456;-77
2020/12/29 07:17:30;;;;;;;1.70;0.97;;;3.30;73.70;;;;;;5128860;27;20452;-76
2020/12/29 07:19:57;;;;;;;5.93;2.17;;;3.40;73.70;;;;;;5130055;27;20545;-77
2020/12/29 07:22:27;;;;;;;1.30;1.20;;;3.40;73.70;;;;;;5127403;27;20449;-77
2020/12/29 07:24:58;;;;;;;1.80;1.07;;;3.40;73.80;;;;;;5128700;27;20453;-78
2020/12/29 07:27:28;;;;;;;4.93;1.10;;;3.40;73.70;;;;;;5124706;27;20465;-77
2020/12/29 07:29:57;;;;;;;1.47;0.80;;;3.40;73.60;;;;;;5126562;27;20457;-77
2020/12/29 07:32:23;;;;;;;1.37;1.07;;;3.40;73.60;;;;;;5128192;27;20525;-78
2020/12/29 07:34:51;;;;;;;2.27;0.87;;;3.50;73.50;;;;;;5135511;27;20530;-76
2020/12/29 07:37:20;;;;;;;1.83;0.80;;;3.50;73.30;;;;;;5123365;27;21212;-77
2020/12/29 07:39:47;;;;;;;2.53;1.17;;;3.60;73.30;;;;;;5134636;27;20811;-78
2020/12/29 07:42:15;;;;;;;2.40;1.03;;;3.70;73.00;;;;;;5129604;27;20449;-78
2020/12/29 07:44:41;;;;;;;0.93;0.80;;;3.80;72.80;;;;;;5127058;27;20543;-77
2020/12/29 07:47:08;;;;;;;1.60;1.50;;;3.90;72.70;;;;;;5126644;27;20513;-77
2020/12/29 07:49:34;;;;;;;2.30;1.00;;;4.00;72.70;;;;;;5127064;27;20451;-77
2020/12/29 07:52:01;;;;;;;1.77;1.37;;;4.00;72.90;;;;;;5129616;27;20452;-77
2020/12/29 07:54:30;;;;;;;1.27;0.80;;;4.10;72.70;;;;;;5126484;27;20448;-76
2020/12/29 07:56:57;;;;;;;2.63;0.90;;;4.20;72.60;;;;;;5124053;27;20450;-76
2020/12/29 07:59:23;;;;;;;1.43;0.77;;;4.20;72.30;;;;;;5125118;27;20496;-77
2020/12/29 08:01:55;;;;;;;1.37;0.70;;;4.30;72.40;;;;;;5129008;27;20438;-77
2020/12/29 08:04:29;;;;;;;3.10;1.20;;;4.30;72.20;;;;;;5123235;27;20494;-78
2020/12/29 08:06:59;;;;;;;1.37;0.80;;;4.30;72.20;;;;;;5130149;27;20460;-78
2020/12/29 08:09:26;;;;;;;3.87;0.80;;;4.30;72.00;;;;;;5126595;27;20482;-78
2020/12/29 08:12:04;;;;;;;1.33;1.10;;;4.40;72.10;;;;;;5133798;27;20960;-77
2020/12/29 08:14:30;;;;;;;1.90;0.80;;;4.40;72.00;;;;;;5128866;27;20449;-77
2020/12/29 08:17:04;;;;;;;0.87;0.77;;;4.40;72.00;;;;;;5133588;27;20449;-78
2020/12/29 08:19:30;;;;;;;1.63;1.37;;;4.40;71.70;;;;;;5134340;27;20492;-77
2020/12/29 08:21:57;;;;;;;2.30;0.97;;;4.50;71.60;;;;;;5134979;27;20461;-76
2020/12/29 08:24:24;;;;;;;2.07;0.90;;;4.50;71.60;;;;;;5133261;27;20525;-77
2020/12/29 08:26:57;;;;;;;1.23;0.83;;;4.50;71.30;;;;;;5134828;27;20477;-77
2020/12/29 08:29:23;;;;;;;1.10;1.00;;;4.50;71.40;;;;;;5132725;27;20449;-76
2020/12/29 08:32:05;;;;;;;2.20;1.00;;;4.50;71.30;;;;;;5139163;27;20540;-77
2020/12/29 08:34:33;;;;;;;2.57;1.00;;;4.60;71.40;;;;;;5131202;27;20505;-77
2020/12/29 08:37:03;;;;;;;0.83;0.83;;;4.60;71.30;;;;;;5130840;27;20490;-77
2020/12/29 08:39:48;;;;;;;1.73;1.10;;;4.60;71.20;;;;;;5129994;27;20446;-77
2020/12/29 08:42:18;;;;;;;1.90;0.83;;;4.60;71.40;;;;;;5133334;27;20469;-76
2020/12/29 08:44:46;;;;;;;1.70;0.90;;;4.50;71.60;;;;;;5128439;27;20456;-77
2020/12/29 08:47:16;;;;;;;1.67;0.97;;;4.10;73.80;;;;;;5153598;27;20473;-77
2020/12/29 08:49:42;;;;;;;1.60;0.57;;;3.40;78.10;;;;;;5156881;27;20434;-78
2020/12/29 08:52:09;;;;;;;0.70;0.50;;;3.00;82.70;;;;;;5149416;27;20473;-76
2020/12/29 08:54:37;;;;;;;0.67;0.60;;;2.80;86.50;;;;;;5139730;27;20963;-76
2020/12/29 08:57:06;;;;;;;0.83;0.60;;;2.80;90.00;;;;;;5135372;27;20454;-76
2020/12/29 08:59:38;;;;;;;0.60;0.57;;;2.80;90.10;;;;;;5136264;27;20464;-77
2020/12/29 09:02:05;;;;;;;0.53;0.53;;;2.70;90.20;;;;;;5137544;27;20455;-76
2020/12/29 09:04:34;;;;;;;0.83;0.50;;;2.70;91.10;;;;;;5134506;27;20446;-76
2020/12/29 09:07:07;;;;;;;2.27;0.60;;;2.70;90.80;;;;;;5133605;27;20476;-76
2020/12/29 09:09:35;;;;;;;4.93;0.67;;;2.70;91.50;;;;;;5134187;27;20472;-77
2020/12/29 09:12:10;;;;;;;0.70;0.60;;;2.80;91.50;;;;;;5130617;27;20881;-77
2020/12/29 09:14:40;;;;;;;0.80;0.80;;;2.80;91.80;;;;;;5134856;27;20451;-77
2020/12/29 09:17:08;;;;;;;0.50;0.50;;;2.80;91.30;;;;;;5125476;27;20517;-77
2020/12/29 09:19:35;;;;;;;0.90;0.70;;;2.70;91.00;;;;;;5133165;27;20959;-76
2020/12/29 09:22:09;;;;;;;1.03;0.80;;;2.70;91.70;;;;;;5127517;27;20474;-77
2020/12/29 09:24:37;;;;;;;1.37;0.80;;;2.70;92.70;;;;;;5136784;27;20998;-76
2020/12/29 09:27:04;;;;;;;0.93;0.93;;;2.90;92.50;;;;;;5136370;27;20460;-76
2020/12/29 09:29:34;;;;;;;0.67;0.60;;;2.80;91.20;;;;;;5140326;27;20490;-77
2020/12/29 09:32:02;;;;;;;1.37;0.87;;;2.90;90.90;;;;;;5131299;27;20571;-77
2020/12/29 09:34:29;;;;;;;1.20;0.90;;;2.90;91.50;;;;;;5131612;27;20467;-76
2020/12/29 09:36:56;;;;;;;1.80;0.70;;;2.90;90.90;;;;;;5132253;27;20458;-77
2020/12/29 09:39:28;;;;;;;1.20;1.03;;;2.90;90.50;;;;;;5131280;27;20948;-77
2020/12/29 09:41:55;;;;;;;0.63;0.60;;;3.10;90.20;;;;;;5128255;27;20467;-77
2020/12/29 09:44:22;;;;;;;0.87;0.87;;;3.00;90.10;;;;;;5129421;27;20440;-75
2020/12/29 09:46:48;;;;;;;1.50;1.40;;;2.90;90.00;;;;;;5125456;27;20447;-75
2020/12/29 09:49:16;;;;;;;1.07;0.80;;;3.00;90.50;;;;;;5128514;27;20481;-75
2020/12/29 09:51:42;;;;;;;0.80;0.73;;;3.00;88.30;;;;;;5125429;27;20468;-75
2020/12/29 09:54:09;;;;;;;1.10;1.00;;;3.10;88.50;;;;;;5126218;27;20528;-76
2020/12/29 09:56:38;;;;;;;0.90;0.70;;;3.20;88.30;;;;;;5128577;27;20465;-76
2020/12/29 09:59:04;;;;;;;0.80;0.77;;;3.30;86.80;;;;;;5124660;27;20506;-75
2020/12/29 10:01:31;;;;;;;0.93;0.93;;;3.30;86.20;;;;;;5129874;27;20433;-76
2020/12/29 10:03:57;;;;;;;1.10;1.00;;;3.40;87.20;;;;;;5129438;27;20449;-75
2020/12/29 10:06:27;;;;;;;1.80;1.40;;;3.40;87.00;;;;;;5126108;27;20470;-76
2020/12/29 10:08:54;;;;;;;0.90;0.73;;;3.30;86.10;;;;;;5127215;27;20518;-76
2020/12/29 10:11:20;;;;;;;1.10;1.00;;;3.40;85.30;;;;;;5129717;27;20457;-76
2020/12/29 10:13:47;;;;;;;0.90;0.90;;;3.40;84.60;;;;;;5127396;27;20455;-76
2020/12/29 10:16:13;;;;;;;1.00;0.90;;;3.50;84.30;;;;;;5126260;27;20993;-77
2020/12/29 10:18:39;;;;;;;1.30;1.10;;;3.50;84.20;;;;;;5126436;27;20496;-76
2020/12/29 10:21:06;;;;;;;1.67;1.10;;;3.50;83.10;;;;;;5126678;27;20490;-76
2020/12/29 10:23:33;;;;;;;0.90;0.90;;;3.50;83.00;;;;;;5131614;27;20461;-75
2020/12/29 10:26:00;;;;;;;0.80;0.77;;;3.60;83.40;;;;;;5132615;27;20441;-76
2020/12/29 10:28:26;;;;;;;0.53;0.47;;;3.70;82.90;;;;;;5131839;27;20467;-76
2020/12/29 10:30:53;;;;;;;0.60;0.60;;;3.70;82.10;;;;;;5125981;27;20456;-75
2020/12/29 10:33:19;;;;;;;0.80;0.67;;;3.80;81.50;;;;;;5128270;27;20453;-76
2020/12/29 10:35:45;;;;;;;1.27;0.70;;;3.90;80.60;;;;;;5127408;27;20452;-75
2020/12/29 10:38:12;;;;;;;0.97;0.87;;;3.90;80.40;;;;;;5129600;27;20815;-76
2020/12/29 10:40:39;;;;;;;1.10;1.00;;;4.00;80.10;;;;;;5127649;27;20509;-76
2020/12/29 10:43:06;;;;;;;1.43;1.27;;;4.00;79.50;;;;;;5129426;27;20481;-76
2020/12/29 10:45:32;;;;;;;0.90;0.90;;;4.00;80.30;;;;;;5127080;27;20584;-76
2020/12/29 10:47:58;;;;;;;1.33;0.90;;;4.10;79.40;;;;;;5122895;27;20469;-77
2020/12/29 10:50:25;;;;;;;1.40;1.27;;;4.00;79.30;;;;;;5126113;27;20449;-76
2020/12/29 10:52:51;;;;;;;1.00;0.93;;;4.20;79.10;;;;;;5132653;27;20534;-76
2020/12/29 10:55:18;;;;;;;1.33;1.10;;;4.10;78.50;;;;;;5126608;27;20468;-77
2020/12/29 10:57:46;;;;;;;2.20;0.83;;;4.10;78.50;;;;;;5130061;27;20458;-75
2020/12/29 11:00:12;;;;;;;0.73;0.70;;;4.00;77.60;;;;;;5127910;27;21059;-76
2020/12/29 11:02:39;;;;;;;1.43;1.17;;;4.00;78.20;;;;;;5130236;27;20437;-76
2020/12/29 11:05:07;;;;;;;0.90;0.90;;;4.00;78.30;;;;;;5125238;27;20442;-77
2020/12/29 11:07:34;;;;;;;0.80;0.80;;;4.10;78.20;;;;;;5126065;27;20469;-76
2020/12/29 11:10:00;;;;;;;1.50;1.40;;;4.30;78.10;;;;;;5128191;27;20844;-76
2020/12/29 11:12:27;;;;;;;1.13;1.10;;;4.30;77.10;;;;;;5125780;27;20445;-75
2020/12/29 11:14:54;;;;;;;1.53;0.90;;;4.30;77.70;;;;;;5129550;27;20450;-75
2020/12/29 11:17:24;;;;;;;1.97;1.37;;;4.20;77.10;;;;;;5123405;27;20502;-77
2020/12/29 11:19:51;;;;;;;0.93;0.77;;;4.10;77.10;;;;;;5125468;27;20452;-75
2020/12/29 11:22:17;;;;;;;1.60;1.10;;;4.10;77.30;;;;;;5122539;27;20438;-75
2020/12/29 11:24:44;;;;;;;1.23;0.93;;;4.10;77.10;;;;;;5124359;27;20456;-75
2020/12/29 11:27:10;;;;;;;0.90;0.80;;;4.00;77.30;;;;;;5121669;27;20458;-75
2020/12/29 11:29:37;;;;;;;2.97;1.23;;;4.00;77.10;;;;;;5126227;27;20453;-75
2020/12/29 11:32:04;;;;;;;1.00;0.90;;;4.10;77.40;;;;;;5122421;27;20476;-76
2020/12/29 11:34:30;;;;;;;1.43;1.00;;;4.00;77.00;;;;;;5129054;27;20468;-76
2020/12/29 11:36:57;;;;;;;1.57;0.73;;;4.00;77.00;;;;;;5120651;27;20456;-75
2020/12/29 11:39:24;;;;;;;0.97;0.90;;;4.00;77.10;;;;;;5126741;27;20472;-75
2020/12/29 11:41:53;;;;;;;0.77;0.77;;;4.00;77.40;;;;;;5123148;27;20887;-76
2020/12/29 11:44:20;;;;;;;1.47;1.10;;;4.00;76.60;;;;;;5127235;27;20436;-76
2020/12/29 11:46:48;;;;;;;2.57;1.40;;;4.00;76.80;;;;;;5123669;27;20453;-76
2020/12/29 11:49:15;;;;;;;0.83;0.80;;;4.10;76.70;;;;;;5127840;27;20479;-75
2020/12/29 11:51:48;;;;;;;1.30;1.20;;;4.10;76.70;;;;;;5127484;27;20452;-75
2020/12/29 11:54:15;;;;;;;3.27;1.57;;;4.20;76.80;;;;;;5128484;27;20562;-75
2020/12/29 11:56:41;;;;;;;1.43;1.30;;;4.20;76.80;;;;;;5127053;27;20468;-76
2020/12/29 11:59:08;;;;;;;1.50;1.40;;;4.40;76.70;;;;;;5122931;27;20455;-75
2020/12/29 12:01:37;;;;;;;1.30;1.20;;;4.50;76.40;;;;;;5123175;27;20449;-75
2020/12/29 12:04:06;;;;;;;2.37;1.30;;;4.60;75.80;;;;;;5128398;27;20540;-76
2020/12/29 12:06:34;;;;;;;1.73;1.20;;;4.70;76.10;;;;;;5129909;27;20449;-76
2020/12/29 12:09:01;;;;;;;1.73;1.20;;;4.70;76.00;;;;;;5124626;27;20522;-75
2020/12/29 12:11:28;;;;;;;1.13;1.10;;;4.70;75.70;;;;;;5137169;27;20456;-76
2020/12/29 12:13:55;;;;;;;1.17;1.07;;;4.70;75.90;;;;;;5149853;27;20445;-75
2020/12/29 12:16:24;;;;;;;1.60;0.80;;;4.80;75.70;;;;;;5152833;27;20442;-75
2020/12/29 12:18:50;;;;;;;1.83;1.20;;;4.70;75.50;;;;;;5143480;27;20438;-74
2020/12/29 12:21:17;;;;;;;1.23;1.13;;;4.80;75.80;;;;;;5137960;27;20518;-75
2020/12/29 12:23:44;;;;;;;2.10;1.20;;;4.60;75.60;;;;;;5133614;27;20465;-78
2020/12/29 12:26:16;;;;;;;1.97;1.10;;;4.70;76.00;;;;;;5135315;27;20475;-77
2020/12/29 12:28:43;;;;;;;1.77;1.07;;;4.90;75.60;;;;;;5134929;27;20469;-77
2020/12/29 12:31:16;;;;;;;1.50;1.20;;;4.90;75.30;;;;;;5138758;28;20452;-78
2020/12/29 12:33:43;;;;;;;0.90;0.80;;;4.80;75.20;;;;;;5127824;27;20484;-78
2020/12/29 12:36:10;;;;;;;1.07;1.00;;;4.80;75.00;;;;;;5134023;28;20710;-77
2020/12/29 12:38:37;;;;;;;1.30;0.90;;;4.70;75.30;;;;;;5135499;27;20657;-77
2020/12/29 12:41:07;;;;;;;2.67;0.93;;;4.60;75.10;;;;;;5138428;28;20426;-77
2020/12/29 12:43:33;;;;;;;0.90;0.90;;;4.70;75.10;;;;;;5138495;28;20493;-77
2020/12/29 12:46:00;;;;;;;1.20;1.03;;;4.70;74.90;;;;;;5134782;27;20453;-78
2020/12/29 12:48:27;;;;;;;0.83;0.83;;;4.80;74.50;;;;;;5141230;28;20521;-78
2020/12/29 12:50:54;;;;;;;0.67;0.67;;;4.80;74.30;;;;;;5141692;28;20966;-79
2020/12/29 12:53:21;;;;;;;1.97;1.10;;;4.80;74.20;;;;;;5137575;27;20456;-78
2020/12/29 12:55:47;;;;;;;1.10;1.00;;;5.00;74.10;;;;;;5135202;27;20458;-77
2020/12/29 12:58:16;;;;;;;3.53;1.50;;;5.10;73.50;;;;;;5116169;28;20505;-77